Wetterdaten vom Sonntag, 12. Juli 2020

Temperatur Taupunkt Windchill Luftfeuchte Luftdruck Solarstrahlung Regen ET
(Verdunstung von Wasser)
Wind
Max 11.7 °C
00:00
7.1 °C
00:05
11.6 °C
00:00
89%
05:55
1023.2 hPa
06:55
227 W/m²
07:20
1.7 km/h
04:45 km/h
Durchschnitt 8.6 °C 5.9 °C 8.6 °C 83% 1022 hPa 89 W/m² 0 mm 0.102 mm 0.1 km/h
Min 6.4 °C
05:40
4.4 °C
05:40
6.4 °C
05:40
74%
00:00
1020.7 hPa
01:10
0 km/h (Böe)
00:00 km/h
Zeit
00:00 11.6 °C 7.1 °C 11.6 °C 74% 1021.5 hPa 0 W/m² 0.0 mm 0.000 mm 0.0 km/h
00:05 11.4 °C 7.1 °C 11.4 °C 75% 1020.8 hPa 0 W/m² 0.0 mm 0.000 mm 0.0 km/h
00:10 11.3 °C 7.0 °C 11.3 °C 75% 1021.2 hPa 0 W/m² 0.0 mm 0.000 mm 0.0 km/h
00:15 11.2 °C 6.9 °C 11.2 °C 75% 1021.4 hPa 0 W/m² 0.0 mm 0.000 mm 0.0 km/h
00:20 11.1 °C 7.0 °C 11.1 °C 76% 1021.5 hPa 0 W/m² 0.0 mm 0.000 mm 0.2 km/h
00:25 10.9 °C 6.8 °C 10.9 °C 76% 1021.8 hPa 0 W/m² 0.0 mm 0.000 mm 1.4 km/h
00:30 10.8 °C 6.9 °C 10.8 °C 77% 1021.7 hPa 0 W/m² 0.0 mm 0.000 mm 0.3 km/h
00:35 10.7 °C 7.0 °C 10.7 °C 78% 1021.3 hPa 0 W/m² 0.0 mm 0.000 mm 0.2 km/h
00:40 10.6 °C 6.9 °C 10.6 °C 78% 1021.3 hPa 0 W/m² 0.0 mm 0.000 mm 0.0 km/h
00:45 10.5 °C 6.8 °C 10.5 °C 78% 1021.6 hPa 0 W/m² 0.0 mm 0.000 mm 0.0 km/h
00:50 10.3 °C 6.6 °C 10.3 °C 78% 1021.3 hPa 0 W/m² 0.0 mm 0.000 mm 0.0 km/h
00:55 10.1 °C 6.6 °C 10.1 °C 79% 1021.1 hPa 0 W/m² 0.0 mm 0.000 mm 0.0 km/h
01:00 9.9 °C 6.6 °C 9.9 °C 80% 1021.4 hPa 0 W/m² 0.0 mm 0.025 mm 0.0 km/h
01:05 9.8 °C 6.5 °C 9.8 °C 80% 1021.6 hPa 0 W/m² 0.0 mm 0.000 mm 0.0 km/h
01:10 9.8 °C 6.5 °C 9.8 °C 80% 1020.7 hPa 0 W/m² 0.0 mm 0.000 mm 0.0 km/h
01:15 9.7 °C 6.6 °C 9.7 °C 81% 1021.3 hPa 0 W/m² 0.0 mm 0.000 mm 0.0 km/h
01:20 9.7 °C 6.6 °C 9.7 °C 81% 1021.1 hPa 0 W/m² 0.0 mm 0.000 mm 0.0 km/h
01:25 9.6 °C 6.5 °C 9.6 °C 81% 1021.4 hPa 0 W/m² 0.0 mm 0.000 mm 0.2 km/h
01:30 9.6 °C 6.5 °C 9.6 °C 81% 1021.5 hPa 0 W/m² 0.0 mm 0.000 mm 0.2 km/h
01:35 9.5 °C 6.4 °C 9.5 °C 81% 1021.4 hPa 0 W/m² 0.0 mm 0.000 mm 0.0 km/h
01:40 9.4 °C 6.3 °C 9.4 °C 81% 1021.6 hPa 0 W/m² 0.0 mm 0.000 mm 0.0 km/h
01:45 9.3 °C 6.2 °C 9.3 °C 81% 1021.7 hPa 0 W/m² 0.0 mm 0.000 mm 0.0 km/h
01:50 9.3 °C 6.2 °C 9.3 °C 81% 1022.0 hPa 0 W/m² 0.0 mm 0.000 mm 0.0 km/h
01:55 9.2 °C 6.3 °C 9.2 °C 82% 1021.8 hPa 0 W/m² 0.0 mm 0.000 mm 0.0 km/h
02:00 9.2 °C 6.3 °C 9.2 °C 82% 1021.8 hPa 0 W/m² 0.0 mm 0.026 mm 0.0 km/h
02:05 9.1 °C 6.4 °C 9.1 °C 83% 1021.8 hPa 0 W/m² 0.0 mm 0.000 mm 0.0 km/h
02:10 9.1 °C 6.4 °C 9.1 °C 83% 1021.9 hPa 0 W/m² 0.0 mm 0.000 mm 0.0 km/h
02:15 9.0 °C 6.3 °C 9.0 °C 83% 1021.9 hPa 0 W/m² 0.0 mm 0.000 mm 0.0 km/h
02:20 8.9 °C 6.2 °C 8.9 °C 83% 1021.4 hPa 0 W/m² 0.0 mm 0.000 mm 0.1 km/h
02:25 8.8 °C 6.1 °C 8.8 °C 83% 1021.7 hPa 0 W/m² 0.0 mm 0.000 mm 0.0 km/h
02:30 8.8 °C 6.2 °C 8.8 °C 84% 1021.8 hPa 0 W/m² 0.0 mm 0.000 mm 0.0 km/h
02:35 8.7 °C 6.0 °C 8.7 °C 83% 1022.0 hPa 0 W/m² 0.0 mm 0.000 mm 0.0 km/h
02:40 8.7 °C 6.2 °C 8.7 °C 84% 1022.0 hPa 0 W/m² 0.0 mm 0.000 mm 0.1 km/h
02:45 8.7 °C 6.3 °C 8.7 °C 85% 1021.9 hPa 0 W/m² 0.0 mm 0.000 mm 0.3 km/h
02:50 8.7 °C 6.3 °C 8.7 °C 85% 1021.8 hPa 0 W/m² 0.0 mm 0.000 mm 0.0 km/h
02:55 8.7 °C 6.2 °C 8.7 °C 84% 1021.8 hPa 0 W/m² 0.0 mm 0.000 mm 0.0 km/h
03:00 8.6 °C 6.1 °C 8.6 °C 84% 1022.1 hPa 0 W/m² 0.0 mm 0.000 mm 0.7 km/h
03:05 8.6 °C 6.1 °C 8.6 °C 84% 1022.0 hPa 0 W/m² 0.0 mm 0.000 mm 0.4 km/h
03:10 8.6 °C 6.1 °C 8.6 °C 84% 1022.0 hPa 0 W/m² 0.0 mm 0.000 mm 0.0 km/h
03:15 8.4 °C 5.9 °C 8.4 °C 84% 1022.0 hPa 0 W/m² 0.0 mm 0.000 mm 0.3 km/h
03:20 8.3 °C 5.6 °C 8.3 °C 83% 1022.0 hPa 0 W/m² 0.0 mm 0.000 mm 0.0 km/h
03:25 8.2 °C 5.5 °C 8.2 °C 83% 1021.9 hPa 0 W/m² 0.0 mm 0.000 mm 0.0 km/h
03:30 8.1 °C 5.4 °C 8.1 °C 83% 1021.8 hPa 0 W/m² 0.0 mm 0.000 mm 0.0 km/h
03:35 8.0 °C 5.5 °C 8.0 °C 84% 1021.8 hPa 0 W/m² 0.0 mm 0.000 mm 0.0 km/h
03:40 7.9 °C 5.4 °C 7.9 °C 84% 1021.9 hPa 0 W/m² 0.0 mm 0.000 mm 0.0 km/h
03:45 7.8 °C 5.3 °C 7.8 °C 84% 1021.9 hPa 0 W/m² 0.0 mm 0.000 mm 0.0 km/h
03:50 7.8 °C 5.4 °C 7.8 °C 85% 1022.1 hPa 0 W/m² 0.0 mm 0.000 mm 0.0 km/h
03:55 7.7 °C 5.5 °C 7.7 °C 86% 1021.9 hPa 0 W/m² 0.0 mm 0.000 mm 0.2 km/h
04:00 7.7 °C 5.5 °C 7.7 °C 86% 1021.7 hPa 0 W/m² 0.0 mm 0.000 mm 0.0 km/h
04:05 7.6 °C 5.2 °C 7.6 °C 85% 1022.1 hPa 0 W/m² 0.0 mm 0.000 mm 0.3 km/h
04:10 7.4 °C 5.0 °C 7.4 °C 85% 1022.1 hPa 0 W/m² 0.0 mm 0.000 mm 0.1 km/h
04:15 7.4 °C 5.2 °C 7.4 °C 86% 1022.0 hPa 0 W/m² 0.0 mm 0.000 mm 0.0 km/h
04:20 7.3 °C 5.1 °C 7.3 °C 86% 1022.2 hPa 0 W/m² 0.0 mm 0.000 mm 0.0 km/h
04:25 7.3 °C 5.3 °C 7.3 °C 87% 1022.0 hPa 0 W/m² 0.0 mm 0.000 mm 0.3 km/h
04:30 7.3 °C 5.4 °C 7.3 °C 88% 1022.1 hPa 0 W/m² 0.0 mm 0.000 mm 0.5 km/h
04:35 7.3 °C 5.4 °C 7.3 °C 88% 1022.1 hPa 0 W/m² 0.0 mm 0.000 mm 0.0 km/h
04:40 7.3 °C 5.4 °C 7.3 °C 88% 1022.2 hPa 0 W/m² 0.0 mm 0.000 mm 0.1 km/h
04:45 7.3 °C 5.4 °C 7.3 °C 88% 1022.1 hPa 0 W/m² 0.0 mm 0.000 mm 1.7 km/h
04:50 7.3 °C 5.4 °C 7.3 °C 88% 1022.0 hPa 0 W/m² 0.0 mm 0.000 mm 0.3 km/h
04:55 7.2 °C 5.2 °C 7.2 °C 87% 1022.2 hPa 0 W/m² 0.0 mm 0.000 mm 0.1 km/h
05:00 7.2 °C 5.2 °C 7.2 °C 87% 1021.9 hPa 0 W/m² 0.0 mm 0.000 mm 0.0 km/h
05:05 7.1 °C 5.1 °C 7.1 °C 87% 1022.4 hPa 0 W/m² 0.0 mm 0.000 mm 0.0 km/h
05:10 7.0 °C 4.8 °C 7.0 °C 86% 1022.2 hPa 0 W/m² 0.0 mm 0.000 mm 0.0 km/h
05:15 6.9 °C 4.7 °C 6.9 °C 86% 1022.4 hPa 0 W/m² 0.0 mm 0.000 mm 0.0 km/h
05:20 6.8 °C 4.6 °C 6.8 °C 86% 1022.5 hPa 0 W/m² 0.0 mm 0.000 mm 0.0 km/h
05:25 6.7 °C 4.5 °C 6.7 °C 86% 1022.4 hPa 0 W/m² 0.0 mm 0.000 mm 0.0 km/h
05:30 6.6 °C 4.4 °C 6.6 °C 86% 1022.3 hPa 5 W/m² 0.0 mm 0.000 mm 0.0 km/h
05:35 6.6 °C 4.6 °C 6.6 °C 87% 1022.5 hPa 7 W/m² 0.0 mm 0.000 mm 0.0 km/h
05:40 6.4 °C 4.4 °C 6.4 °C 87% 1022.6 hPa 9 W/m² 0.0 mm 0.000 mm 0.0 km/h
05:45 6.4 °C 4.4 °C 6.4 °C 87% 1022.6 hPa 12 W/m² 0.0 mm 0.000 mm 0.0 km/h
05:50 6.4 °C 4.6 °C 6.4 °C 88% 1022.2 hPa 17 W/m² 0.0 mm 0.000 mm 0.0 km/h
05:55 6.5 °C 4.8 °C 6.5 °C 89% 1022.5 hPa 23 W/m² 0.0 mm 0.000 mm 0.0 km/h
06:00 6.6 °C 4.9 °C 6.6 °C 89% 1022.4 hPa 30 W/m² 0.0 mm 0.000 mm 0.0 km/h
06:05 6.7 °C 4.9 °C 6.7 °C 88% 1022.4 hPa 36 W/m² 0.0 mm 0.000 mm 0.0 km/h
06:10 6.8 °C 4.8 °C 6.8 °C 87% 1022.5 hPa 44 W/m² 0.0 mm 0.000 mm 0.1 km/h
06:15 7.1 °C 4.9 °C 7.1 °C 86% 1022.3 hPa 52 W/m² 0.0 mm 0.000 mm 0.0 km/h
06:20 7.3 °C 5.3 °C 7.3 °C 87% 1022.6 hPa 62 W/m² 0.0 mm 0.000 mm 0.0 km/h
06:25 7.7 °C 5.3 °C 7.7 °C 85% 1022.7 hPa 71 W/m² 0.0 mm 0.000 mm 0.0 km/h
06:30 7.9 °C 5.4 °C 7.9 °C 84% 1022.7 hPa 82 W/m² 0.0 mm 0.000 mm 0.6 km/h
06:35 8.2 °C 5.8 °C 8.2 °C 85% 1022.9 hPa 94 W/m² 0.0 mm 0.000 mm 0.0 km/h
06:40 8.7 °C 6.3 °C 8.7 °C 85% 1022.9 hPa 107 W/m² 0.0 mm 0.000 mm 0.0 km/h
06:45 9.1 °C 6.2 °C 9.1 °C 82% 1022.8 hPa 122 W/m² 0.0 mm 0.000 mm 0.0 km/h
06:50 9.3 °C 6.0 °C 9.3 °C 80% 1022.8 hPa 137 W/m² 0.0 mm 0.000 mm 0.1 km/h
06:55 9.5 °C 6.0 °C 9.5 °C 79% 1023.2 hPa 152 W/m² 0.0 mm 0.000 mm 0.0 km/h
07:00 9.8 °C 6.3 °C 9.8 °C 79% 1022.7 hPa 167 W/m² 0.0 mm 0.051 mm 0.0 km/h
07:05 10.2 °C 6.9 °C 10.2 °C 80% 1022.6 hPa 183 W/m² 0.0 mm 0.000 mm 0.1 km/h
07:10 10.4 °C 6.7 °C 10.4 °C 78% 1022.9 hPa 199 W/m² 0.0 mm 0.000 mm 1.4 km/h
07:15 10.6 °C 7.1 °C 10.6 °C 79% 1023.0 hPa 214 W/m² 0.0 mm 0.000 mm 0.3 km/h
07:20 10.9 °C 7.0 °C 10.9 °C 77% 1022.9 hPa 227 W/m² 0.0 mm 0.000 mm 1.3 km/h